GIBO2: Ft Gibson Lake, OK

Data processed at Sun Oct 25 2020 23:55


All information presented herein is the property of the government of the United States of America and may be revised or deleted at any time without prior notice.
Dissemination of this information without the expressed written consent of the Public Affairs Office, Tulsa District U.S. Army Corps of Engineers is strictly prohibited.
These data are gathered electronically and, as presented, have not undergone any form of quality control. These data are not guaranteed to be valid or correct.
Go to home page.
Go to station list.
Go to home page.

Upstream stations:

Downstream station:
Previous Day
Next Day
Current Day
    
SHEF ID:       GIBO2     Ft. Gibson Lake
STATION TYPE:  RESERVOIR
Flood Pool:  Bottom =   554.00, Top =   582.00

               PRECIP ELEVATION   STORAGE   TW-ELEV    INFLOW   RELEASE  AIR-TEMP  WIND-DIRWIND-SPEED REL-HUMID SOLAR-RAD   VOLTAGE  BAT-LOAD
                   in        ft     ac-ft        ft       cfs       cfs         F       deg       mph         %      W/m2      volt      volt
              Ccp-Rev   Ccp-Rev   Ccp-Rev   Ccp-Rev  Rev-Regi  Rev-Regi   Ccp-Rev   Ccp-Rev   Ccp-Rev   Ccp-Rev   Ccp-Rev   Ccp-Rev   Ccp-Rev
(US/Central)
10/25 00:00      0.00    551.50    319900    490.08      6740         0     49.75     21.40      0.80     76.23      0.00     13.58     13.06
10/25 01:00      0.00    551.56    320932    490.08      6322         0     49.87     49.70      0.30     78.00      0.00     13.59     13.06
10/25 02:00      0.00    551.56    320932    490.12      6267         0     49.55     56.90      0.50     79.48      0.00     13.57     13.06
10/25 03:00      0.00    551.51    320072    490.11      3089         0     49.08     72.80      0.70     81.83      0.00     13.59     13.07
10/25 04:00      0.00    551.53    320416    490.06      1575         0     49.05     22.40      0.90     82.50      0.00     13.59     13.06
10/25 05:00      0.00    551.55    320760    489.97      1575         0     48.87     29.70      0.80     83.34      0.00     13.59     13.06
10/25 06:00      0.00    551.57    321104    489.91      1575         0     48.97     16.20      1.20     84.77      0.00     13.54     13.08
10/25 07:00      0.00    551.56    320932    489.87       965         0     49.01     29.90      0.70     85.57      0.00     13.60     13.06
10/25 08:00      0.00    551.54    320588    489.83       482         0     48.88     24.20      1.00     86.06      0.00     13.58     13.07
10/25 09:00      0.00    551.56    320932    489.80       447         0     49.41     12.20      1.50     85.26     30.50     13.55     13.07
10/25 10:00      0.00    551.56    320932    489.76       447         0     51.03     32.90      0.90     80.81    112.60     13.57     13.05
10/25 11:00      0.00    551.59    321448    489.77       447         0     52.61      9.00      1.50     75.98    206.40     13.58     13.04
10/25 12:00      0.00    551.58    321276    489.76       627         0     54.48     19.40      0.70     70.37    138.80     13.58     13.03
10/25 13:00      0.00    551.56    320932    489.79      1346         0     55.13     49.70      0.70     65.17    107.40     13.57     13.06
10/25 14:00      0.00    551.57    321104    489.79       899         0     55.33     17.30      0.90     63.65     85.50     13.59     13.07
10/25 15:00      0.00    551.61    321792    489.77       899         0     55.09     14.30      1.60     65.21     76.60     13.57     13.06
10/25 16:00      0.00    551.60    321620    489.76       899         0     54.37      1.80      2.40     68.71     81.50     13.57     13.07
10/25 17:00      0.00    551.59    321448    489.76       719         0     53.40      7.40      2.80     69.58     51.90     13.58     13.06
10/25 18:00      0.00    551.59    321448    489.77         0         0     52.74     13.10      3.30     69.13     15.80     13.59     13.06
10/25 19:00      0.00    551.59    321448    489.79         0         0     52.09      2.10      2.90     70.56      0.00     13.56     13.06
10/25 20:00      0.00    551.59    321448    489.79         0         0     51.42      4.70      2.80     71.56      0.00     13.58     13.07
10/25 21:00      0.00    551.60    321620    489.80         0         0     51.03      4.50      3.10     71.82      0.00     13.57     13.07
10/25 22:00      0.00    551.59    321448    489.76         0         0     50.50      8.10      2.60     73.34      0.00     13.58     13.06
10/25 23:00      ----      ----      ----      ----      ----      ----      ----      ----      ----      ----      ----      ----      ----